createdAt,value
2023-05-14T00:00:22.821Z,12.86
2023-05-14T00:02:55.500Z,13.39
2023-05-14T00:05:25.596Z,12.84
2023-05-14T00:07:55.346Z,12.58
2023-05-14T00:10:25.271Z,12.38
2023-05-14T00:12:55.162Z,12.76
2023-05-14T00:15:24.856Z,12.57
2023-05-14T00:17:57.156Z,11.87
2023-05-14T00:20:26.998Z,12.69
2023-05-14T00:22:56.736Z,13.08
2023-05-14T00:25:26.557Z,13.25
2023-05-14T00:27:56.219Z,12.68
2023-05-14T00:30:26.269Z,12.63
2023-05-14T00:32:59.379Z,12.88
2023-05-14T00:35:29.194Z,12.61
2023-05-14T00:37:58.879Z,13.12
2023-05-14T00:40:29.095Z,13.48
2023-05-14T00:42:59.490Z,13.30
2023-05-14T00:45:29.542Z,13.58
2023-05-14T00:48:01.980Z,13.33
2023-05-14T00:50:31.860Z,13.20
2023-05-14T00:53:01.885Z,13.02
2023-05-14T00:55:33.021Z,13.90
2023-05-14T00:58:03.101Z,13.56
2023-05-14T01:00:32.902Z,13.44
2023-05-14T01:03:07.887Z,13.09
2023-05-14T01:05:43.486Z,13.59
2023-05-14T01:08:21.568Z,13.18
2023-05-14T01:10:54.991Z,13.60
2023-05-14T01:13:31.978Z,13.67
2023-05-14T01:16:03.557Z,13.79
2023-05-14T01:18:36.748Z,13.63
2023-05-14T01:21:06.575Z,14.36
2023-05-14T01:23:39.040Z,14.06
2023-05-14T01:26:08.772Z,14.67
2023-05-14T01:28:40.489Z,14.87
2023-05-14T01:31:15.106Z,14.94
2023-05-14T01:33:46.541Z,15.48
2023-05-14T01:36:16.331Z,15.70
2023-05-14T01:38:51.365Z,15.96
2023-05-14T01:41:22.926Z,16.27
2023-05-14T01:43:52.862Z,16.44
2023-05-14T01:46:24.932Z,16.20
2023-05-14T01:48:54.615Z,16.55
2023-05-14T01:51:24.434Z,16.90
2023-05-14T01:53:56.737Z,17.63
2023-05-14T01:56:27.258Z,17.85
2023-05-14T01:58:57.237Z,17.79
2023-05-14T02:01:27.092Z,18.05
2023-05-14T02:03:57.306Z,18.51
2023-05-14T02:06:27.065Z,18.39
2023-05-14T02:09:01.494Z,18.67
2023-05-14T02:11:31.513Z,18.42
2023-05-14T02:14:01.242Z,19.47
2023-05-14T02:16:31.025Z,19.03
2023-05-14T02:19:01.059Z,18.56
2023-05-14T02:21:30.977Z,19.11
2023-05-14T02:24:03.335Z,19.66
2023-05-14T02:26:33.162Z,19.96
2023-05-14T02:29:02.918Z,19.74
2023-05-14T02:31:32.729Z,19.38
2023-05-14T02:34:03.879Z,19.14
2023-05-14T02:36:33.635Z,19.60
2023-05-14T02:39:05.893Z,19.26
2023-05-14T02:41:35.622Z,19.22
2023-05-14T02:44:05.348Z,20.44
2023-05-14T02:46:35.362Z,20.51
2023-05-14T02:49:05.765Z,20.04
2023-05-14T02:51:35.458Z,20.27
2023-05-14T02:54:07.891Z,20.87
2023-05-14T02:56:37.570Z,20.94
2023-05-14T02:59:07.498Z,20.66
2023-05-14T03:01:37.614Z,20.76
2023-05-14T03:04:07.943Z,21.24
2023-05-14T03:06:37.615Z,20.90
2023-05-14T03:09:09.966Z,21.36
2023-05-14T03:11:39.778Z,21.27
2023-05-14T03:14:09.455Z,22.24
2023-05-14T03:16:40.312Z,21.30
2023-05-14T03:19:10.180Z,21.29
2023-05-14T03:21:39.956Z,22.06
2023-05-14T03:24:12.341Z,22.67
2023-05-14T03:26:41.995Z,21.93
2023-05-14T03:29:11.697Z,21.91
2023-05-14T03:31:41.354Z,22.91
2023-05-14T03:34:11.106Z,22.74
2023-05-14T03:36:40.846Z,22.00
2023-05-14T03:39:15.616Z,22.60
2023-05-14T03:41:45.739Z,22.28
2023-05-14T03:44:15.837Z,22.90
2023-05-14T03:46:45.492Z,22.88
2023-05-14T03:49:15.343Z,23.06
2023-05-14T03:51:45.266Z,22.63
2023-05-14T03:54:17.552Z,22.93
2023-05-14T03:56:47.283Z,23.20
2023-05-14T03:59:16.921Z,23.36
2023-05-14T04:01:46.639Z,22.96
2023-05-14T04:04:16.527Z,22.77
2023-05-14T04:06:46.424Z,23.34
2023-05-14T04:09:18.846Z,22.70
2023-05-14T04:11:49.222Z,22.32
2023-05-14T04:14:19.208Z,22.84
2023-05-14T04:16:49.082Z,23.42
2023-05-14T04:19:18.905Z,22.76
2023-05-14T04:21:48.764Z,22.97
2023-05-14T04:24:21.006Z,23.16
2023-05-14T04:26:50.678Z,23.57
2023-05-14T04:29:20.617Z,22.48
2023-05-14T04:31:50.359Z,23.02
2023-05-14T04:34:20.107Z,22.76
2023-05-14T04:36:49.791Z,22.82
2023-05-14T04:39:22.619Z,23.08
2023-05-14T04:41:52.276Z,24.05
2023-05-14T04:44:21.897Z,23.63
2023-05-14T04:46:51.539Z,23.24
2023-05-14T04:49:21.189Z,23.74
2023-05-14T04:51:51.022Z,24.08
2023-05-14T04:54:23.335Z,23.58
2023-05-14T04:56:53.036Z,24.06
2023-05-14T04:59:22.696Z,23.73
2023-05-14T05:01:52.419Z,23.55
2023-05-14T05:04:24.057Z,23.99
2023-05-14T05:06:53.905Z,23.46
2023-05-14T05:09:26.183Z,23.51
2023-05-14T05:11:55.880Z,24.15
2023-05-14T05:14:25.722Z,23.53
2023-05-14T05:16:55.405Z,24.49
2023-05-14T05:19:35.668Z,23.47
2023-05-14T05:22:10.545Z,23.68
2023-05-14T05:24:42.836Z,23.81
2023-05-14T05:27:12.637Z,23.34
2023-05-14T05:29:42.358Z,23.47
2023-05-14T05:32:12.117Z,23.44
2023-05-14T05:34:41.857Z,24.37
2023-05-14T05:37:13.737Z,23.59
2023-05-14T05:39:47.834Z,23.71
2023-05-14T05:42:17.629Z,23.65
2023-05-14T05:44:47.282Z,23.58
2023-05-14T05:47:17.343Z,23.44
2023-05-14T05:49:47.050Z,23.87
2023-05-14T05:52:16.890Z,23.78
2023-05-14T05:54:49.266Z,23.76
2023-05-14T05:57:18.877Z,23.83
2023-05-14T05:59:48.738Z,23.61
2023-05-14T06:02:18.470Z,23.32
2023-05-14T06:04:48.214Z,23.25
2023-05-14T06:07:18.066Z,23.38
2023-05-14T06:09:50.366Z,22.66
2023-05-14T06:12:20.079Z,22.45
2023-05-14T06:14:49.765Z,23.09
2023-05-14T06:17:19.425Z,22.90
2023-05-14T06:19:49.116Z,23.17
2023-05-14T06:22:18.778Z,22.47
2023-05-14T06:24:51.058Z,22.47
2023-05-14T06:27:20.719Z,22.61
2023-05-14T06:29:50.352Z,23.20
2023-05-14T06:32:20.155Z,22.49
2023-05-14T06:34:49.897Z,22.60
2023-05-14T06:37:19.527Z,22.57
2023-05-14T06:39:52.693Z,21.97
2023-05-14T06:42:22.376Z,21.61
2023-05-14T06:44:51.990Z,21.97
2023-05-14T06:47:21.725Z,22.27
2023-05-14T06:49:51.472Z,22.50
2023-05-14T06:52:21.151Z,21.33
2023-05-14T06:54:53.393Z,21.40
2023-05-14T06:57:23.085Z,20.85
2023-05-14T06:59:52.840Z,21.22
2023-05-14T07:02:22.521Z,21.47
2023-05-14T07:04:52.277Z,21.59
2023-05-14T07:07:21.929Z,21.13
2023-05-14T07:09:54.167Z,20.65
2023-05-14T07:12:23.854Z,20.93
2023-05-14T07:14:53.692Z,20.57
2023-05-14T07:17:23.610Z,20.52
2023-05-14T07:19:55.637Z,19.80
2023-05-14T07:22:25.463Z,19.52
2023-05-14T07:24:57.740Z,18.21
2023-05-14T07:27:27.441Z,18.51
2023-05-14T07:29:57.079Z,19.12
2023-05-14T07:32:27.063Z,20.08
2023-05-14T07:34:57.015Z,20.11
2023-05-14T07:37:26.925Z,18.20
2023-05-14T07:39:59.169Z,18.13
2023-05-14T07:42:35.939Z,17.37
2023-05-14T07:45:07.422Z,18.82
2023-05-14T07:47:37.099Z,20.36
2023-05-14T07:50:07.057Z,20.25
2023-05-14T07:52:36.823Z,20.29
2023-05-14T07:55:09.599Z,19.40
2023-05-14T07:57:39.298Z,20.22
2023-05-14T08:00:10.041Z,20.06
2023-05-14T08:02:42.778Z,20.64
2023-05-14T08:05:13.067Z,21.22
2023-05-14T08:07:43.512Z,21.64
2023-05-14T08:10:16.028Z,20.85
2023-05-14T08:12:45.679Z,21.49
2023-05-14T08:15:15.403Z,20.81
2023-05-14T08:17:45.177Z,20.26
2023-05-14T08:20:15.136Z,20.14
2023-05-14T08:22:44.780Z,19.96
2023-05-14T08:25:17.066Z,19.83
2023-05-14T08:27:46.767Z,20.00
2023-05-14T08:30:16.935Z,19.84
2023-05-14T08:32:46.625Z,20.64
2023-05-14T08:35:16.460Z,20.33
2023-05-14T08:37:46.279Z,20.11
2023-05-14T08:40:18.696Z,20.42
2023-05-14T08:42:48.430Z,20.00
2023-05-14T08:45:21.278Z,19.77
2023-05-14T08:47:52.456Z,18.60
2023-05-14T08:50:23.725Z,18.65
2023-05-14T08:52:54.003Z,18.17
2023-05-14T08:55:26.460Z,17.84
2023-05-14T08:57:56.850Z,18.38
2023-05-14T09:00:27.084Z,18.28
2023-05-14T09:02:57.288Z,18.03
2023-05-14T09:05:27.474Z,18.10
2023-05-14T09:07:57.147Z,17.38
2023-05-14T09:10:29.409Z,16.64
2023-05-14T09:12:59.171Z,16.27
2023-05-14T09:15:31.088Z,16.36
2023-05-14T09:18:00.996Z,15.87
2023-05-14T09:20:30.864Z,15.32
2023-05-14T09:23:00.481Z,12.03
2023-05-14T09:25:34.113Z,11.40
2023-05-14T09:28:08.886Z,13.34
2023-05-14T09:30:38.583Z,12.44
2023-05-14T09:33:10.511Z,11.50
2023-05-14T09:35:41.618Z,11.68
2023-05-14T09:38:11.297Z,12.08
2023-05-14T09:40:43.772Z,12.89
2023-05-14T09:43:14.137Z,13.55
2023-05-14T09:45:43.814Z,14.95
2023-05-14T09:48:13.539Z,16.00
2023-05-14T09:50:45.563Z,15.86
2023-05-14T09:53:15.286Z,14.07
2023-05-14T09:55:49.451Z,13.73
2023-05-14T09:58:19.168Z,14.31
2023-05-14T10:00:49.578Z,13.90
2023-05-14T10:03:21.401Z,14.29
2023-05-14T10:05:52.446Z,15.22
2023-05-14T10:08:27.100Z,15.42
2023-05-14T10:11:01.864Z,14.95
2023-05-14T10:13:33.859Z,15.32
2023-05-14T10:16:09.089Z,15.87
2023-05-14T10:18:42.931Z,16.17
2023-05-14T10:21:13.702Z,17.12
2023-05-14T10:23:44.450Z,15.77
2023-05-14T10:26:17.095Z,15.59
2023-05-14T10:28:47.133Z,15.69
2023-05-14T10:31:17.524Z,14.78
2023-05-14T10:33:50.976Z,15.50
2023-05-14T10:36:21.190Z,15.62
2023-05-14T10:38:58.176Z,16.43
2023-05-14T10:41:30.576Z,15.84
2023-05-14T10:44:00.993Z,15.10
2023-05-14T10:46:30.788Z,15.59
2023-05-14T10:49:00.572Z,15.29
2023-05-14T10:51:31.647Z,14.92
2023-05-14T10:54:03.651Z,14.23
2023-05-14T10:56:35.952Z,15.31
2023-05-14T10:59:05.721Z,14.75
2023-05-14T11:01:36.035Z,15.46
2023-05-14T11:04:06.158Z,14.70
2023-05-14T11:06:36.620Z,14.13
2023-05-14T11:09:08.266Z,13.39
2023-05-14T11:11:40.909Z,9.78
2023-05-14T11:14:10.645Z,9.94
2023-05-14T11:16:41.578Z,9.90
2023-05-14T11:19:11.571Z,11.21
2023-05-14T11:21:41.892Z,11.87
2023-05-14T11:24:11.673Z,12.68
2023-05-14T11:26:44.011Z,12.79
2023-05-14T11:29:13.787Z,12.78
2023-05-14T11:31:43.787Z,12.80
2023-05-14T11:34:13.595Z,10.83
2023-05-14T11:36:43.387Z,9.98
2023-05-14T11:39:20.267Z,11.11
2023-05-14T11:41:52.719Z,10.23
2023-05-14T11:44:22.464Z,9.81
2023-05-14T11:46:58.769Z,9.62
2023-05-14T11:49:29.171Z,10.11
2023-05-14T11:52:01.729Z,9.82
2023-05-14T11:54:31.383Z,10.20
2023-05-14T11:57:04.757Z,9.51
2023-05-14T11:59:34.942Z,9.58
2023-05-14T12:02:05.264Z,9.01
2023-05-14T12:04:35.553Z,9.80
2023-05-14T12:07:11.050Z,8.77
2023-05-14T12:09:44.288Z,8.42
2023-05-14T12:12:21.422Z,8.88
2023-05-14T12:14:52.813Z,9.17
2023-05-14T12:17:23.793Z,8.70
2023-05-14T12:19:54.716Z,7.86
2023-05-14T12:22:25.553Z,6.91
2023-05-14T12:24:59.145Z,6.91
2023-05-14T12:27:32.419Z,7.01
2023-05-14T12:30:19.757Z,6.85
2023-05-14T12:32:53.008Z,6.93
2023-05-14T12:35:23.856Z,6.98
2023-05-14T12:37:53.768Z,6.87
2023-05-14T12:40:23.694Z,6.18
2023-05-14T12:42:56.885Z,6.38
2023-05-14T12:45:26.861Z,6.50
2023-05-14T12:47:56.599Z,6.23
2023-05-14T12:50:26.459Z,6.04
2023-05-14T12:52:56.493Z,6.24
2023-05-14T12:55:26.255Z,6.09
2023-05-14T12:57:58.508Z,6.21
2023-05-14T13:00:28.235Z,6.38
2023-05-14T13:02:57.958Z,6.49
2023-05-14T13:05:27.686Z,6.07
2023-05-14T13:07:57.562Z,5.84
2023-05-14T13:10:27.280Z,6.14
2023-05-14T13:12:59.642Z,6.19
2023-05-14T13:15:29.402Z,5.63
2023-05-14T13:17:59.060Z,5.61
2023-05-14T13:20:29.705Z,5.66
2023-05-14T13:22:59.567Z,5.56
2023-05-14T13:25:29.280Z,5.54
2023-05-14T13:28:01.596Z,5.58
2023-05-14T13:30:32.268Z,5.63
2023-05-14T13:33:02.670Z,5.65
2023-05-14T13:35:32.566Z,5.43
2023-05-14T13:38:02.235Z,5.63
2023-05-14T13:40:32.102Z,5.61
2023-05-14T13:43:04.336Z,5.31
2023-05-14T13:45:34.176Z,5.23
2023-05-14T13:48:03.869Z,5.51
2023-05-14T13:50:33.575Z,5.37
2023-05-14T13:53:03.246Z,5.49
2023-05-14T13:55:32.978Z,5.28
2023-05-14T13:58:05.487Z,5.17
2023-05-14T14:00:35.245Z,5.32
2023-05-14T14:03:04.995Z,5.33
2023-05-14T14:05:34.762Z,5.26
2023-05-14T14:08:13.157Z,5.39
2023-05-14T14:10:54.626Z,5.43
2023-05-14T14:13:27.944Z,5.28
2023-05-14T14:15:57.773Z,5.18
2023-05-14T14:18:27.574Z,5.42
2023-05-14T14:20:57.230Z,5.55
2023-05-14T14:23:26.913Z,5.24
2023-05-14T14:25:56.610Z,5.27
2023-05-14T14:28:28.878Z,5.12
2023-05-14T14:30:58.664Z,5.20
2023-05-14T14:33:28.415Z,5.50
2023-05-14T14:35:58.149Z,5.34
2023-05-14T14:38:27.966Z,5.95
2023-05-14T14:40:57.784Z,5.82
2023-05-14T14:43:30.047Z,6.31
2023-05-14T14:45:59.728Z,6.68
2023-05-14T14:48:31.594Z,7.23
2023-05-14T14:51:01.600Z,7.31
2023-05-14T14:53:31.320Z,7.14
2023-05-14T14:56:01.655Z,7.37
2023-05-14T14:58:34.117Z,7.67
2023-05-14T15:01:04.115Z,7.19
2023-05-14T15:03:34.579Z,7.23
2023-05-14T15:06:04.325Z,7.30
2023-05-14T15:08:35.567Z,7.58
2023-05-14T15:11:06.363Z,7.40
2023-05-14T15:13:40.280Z,7.22
2023-05-14T15:16:10.273Z,7.21
2023-05-14T15:18:40.069Z,6.89
2023-05-14T15:21:09.840Z,6.99
2023-05-14T15:23:39.475Z,7.30
2023-05-14T15:26:09.170Z,7.43
2023-05-14T15:28:41.467Z,7.10
2023-05-14T15:31:11.301Z,7.01
2023-05-14T15:33:41.860Z,6.94
2023-05-14T15:36:12.768Z,7.21
2023-05-14T15:38:42.723Z,7.17
2023-05-14T15:41:12.665Z,7.27
2023-05-14T15:43:44.975Z,7.05
2023-05-14T15:46:14.757Z,7.16
2023-05-14T15:48:44.515Z,6.95
2023-05-14T15:51:14.437Z,7.18
2023-05-14T15:53:44.765Z,7.57
2023-05-14T15:56:14.467Z,6.81
2023-05-14T15:58:46.931Z,7.05
2023-05-14T16:01:19.748Z,7.61
2023-05-14T16:03:49.526Z,7.09
2023-05-14T16:06:19.409Z,7.36
2023-05-14T16:08:49.490Z,7.02
2023-05-14T16:11:19.282Z,7.10
2023-05-14T16:13:51.882Z,7.24
2023-05-14T16:16:23.321Z,6.93
2023-05-14T16:18:53.080Z,7.29
2023-05-14T16:21:22.862Z,7.20
2023-05-14T16:23:52.521Z,7.15
2023-05-14T16:26:22.493Z,7.49
2023-05-14T16:28:54.783Z,7.30
2023-05-14T16:31:24.580Z,7.45
2023-05-14T16:33:54.484Z,7.24
2023-05-14T16:36:24.193Z,7.50
2023-05-14T16:39:06.824Z,7.01
2023-05-14T16:41:37.321Z,7.41
2023-05-14T16:44:09.658Z,7.34
2023-05-14T16:46:39.551Z,7.59
2023-05-14T16:49:09.385Z,7.46
2023-05-14T16:51:43.177Z,7.48
2023-05-14T16:54:12.938Z,7.30
2023-05-14T16:56:42.572Z,7.15
2023-05-14T16:59:19.993Z,7.65
2023-05-14T17:01:50.556Z,7.26
2023-05-14T17:04:21.343Z,7.57
2023-05-14T17:06:51.433Z,8.22
2023-05-14T17:09:21.143Z,8.60
2023-05-14T17:11:51.022Z,8.33
2023-05-14T17:14:23.274Z,8.53
2023-05-14T17:16:52.944Z,8.12
2023-05-14T17:19:22.627Z,7.41
2023-05-14T17:21:52.295Z,7.67
2023-05-14T17:24:21.965Z,7.66
2023-05-14T17:26:51.738Z,7.67
2023-05-14T17:29:23.963Z,7.61
2023-05-14T17:31:53.840Z,7.95
2023-05-14T17:34:23.743Z,7.91
2023-05-14T17:36:53.468Z,7.91
2023-05-14T17:39:23.199Z,7.96
2023-05-14T17:41:52.962Z,8.04
2023-05-14T17:44:25.221Z,8.13
2023-05-14T17:46:55.665Z,7.89
2023-05-14T17:49:25.525Z,8.18
2023-05-14T17:51:55.241Z,8.22
2023-05-14T17:54:25.003Z,8.20
2023-05-14T17:56:55.155Z,7.97
2023-05-14T17:59:27.432Z,7.83
2023-05-14T18:01:57.089Z,8.07
2023-05-14T18:04:26.719Z,7.98
2023-05-14T18:06:56.751Z,7.97
2023-05-14T18:09:26.377Z,8.64
2023-05-14T18:11:57.025Z,8.89
2023-05-14T18:14:29.336Z,8.36
2023-05-14T18:16:59.167Z,8.15
2023-05-14T18:19:28.882Z,8.29
2023-05-14T18:21:58.593Z,8.23
2023-05-14T18:24:28.280Z,7.88
2023-05-14T18:26:58.090Z,7.49
2023-05-14T18:29:30.370Z,7.25
2023-05-14T18:32:00.059Z,7.68
2023-05-14T18:34:29.806Z,7.38
2023-05-14T18:36:59.455Z,7.33
2023-05-14T18:39:29.150Z,7.41
2023-05-14T18:41:58.873Z,7.18
2023-05-14T18:44:31.100Z,7.31
2023-05-14T18:47:02.007Z,7.58
2023-05-14T18:49:31.698Z,8.21
2023-05-14T18:52:01.363Z,8.93
2023-05-14T18:54:31.261Z,9.81
2023-05-14T18:57:01.082Z,10.32
2023-05-14T18:59:33.372Z,10.86
2023-05-14T19:02:03.090Z,10.80
2023-05-14T19:04:33.571Z,11.76
2023-05-14T19:07:03.856Z,11.49
2023-05-14T19:09:33.560Z,11.57
2023-05-14T19:12:03.207Z,11.26
2023-05-14T19:14:35.491Z,11.57
2023-05-14T19:17:05.694Z,11.23
2023-05-14T19:19:35.680Z,11.52
2023-05-14T19:22:05.390Z,11.94
2023-05-14T19:24:35.180Z,11.74
2023-05-14T19:27:04.954Z,11.75
2023-05-14T19:29:38.269Z,12.00
2023-05-14T19:32:08.573Z,11.30
2023-05-14T19:34:38.281Z,11.37
2023-05-14T19:37:08.271Z,11.54
2023-05-14T19:39:37.993Z,11.83
2023-05-14T19:42:08.080Z,11.67
2023-05-14T19:44:40.356Z,11.53
2023-05-14T19:47:10.505Z,11.56
2023-05-14T19:49:40.656Z,11.64
2023-05-14T19:52:11.487Z,11.95
2023-05-14T19:54:41.132Z,11.75
2023-05-14T19:57:12.032Z,11.71
2023-05-14T19:59:44.597Z,11.66
2023-05-14T20:02:18.587Z,11.70
2023-05-14T20:04:48.452Z,11.84
2023-05-14T20:07:18.257Z,12.08
2023-05-14T20:09:47.965Z,12.23
2023-05-14T20:12:18.091Z,11.79
2023-05-14T20:14:50.427Z,12.75
2023-05-14T20:17:20.906Z,12.19
2023-05-14T20:19:50.745Z,12.51
2023-05-14T20:22:20.433Z,12.55
2023-05-14T20:24:50.114Z,13.12
2023-05-14T20:27:19.821Z,13.38
2023-05-14T20:29:54.098Z,13.08
2023-05-14T20:32:25.284Z,13.33
2023-05-14T20:34:55.147Z,12.95
2023-05-14T20:37:25.669Z,13.32
2023-05-14T20:39:55.513Z,12.91
2023-05-14T20:42:25.191Z,13.40
2023-05-14T20:44:57.522Z,13.23
2023-05-14T20:47:30.653Z,13.31
2023-05-14T20:50:00.342Z,13.25
2023-05-14T20:52:30.047Z,13.30
2023-05-14T20:55:01.872Z,13.33
2023-05-14T20:57:32.013Z,13.22
2023-05-14T21:00:08.175Z,13.14
2023-05-14T21:02:38.108Z,13.50
2023-05-14T21:05:08.555Z,13.55
2023-05-14T21:07:39.604Z,14.07
2023-05-14T21:10:10.140Z,13.10
2023-05-14T21:12:40.629Z,13.17
2023-05-14T21:15:14.389Z,13.26
2023-05-14T21:17:44.267Z,13.09
2023-05-14T21:20:15.721Z,13.25
2023-05-14T21:22:45.402Z,13.18
2023-05-14T21:25:15.096Z,12.51
2023-05-14T21:27:44.760Z,13.38
2023-05-14T21:30:17.654Z,12.97
2023-05-14T21:32:47.381Z,12.93
2023-05-14T21:35:17.429Z,12.96
2023-05-14T21:37:47.165Z,12.84
2023-05-14T21:40:17.030Z,12.92
2023-05-14T21:42:46.776Z,12.42
2023-05-14T21:45:19.854Z,12.50
2023-05-14T21:47:50.556Z,12.96
2023-05-14T21:50:20.671Z,13.29
2023-05-14T21:52:50.399Z,12.72
2023-05-14T21:55:20.228Z,13.16
2023-05-14T21:57:49.972Z,13.15
2023-05-14T22:00:23.672Z,12.66
2023-05-14T22:02:53.867Z,12.88
2023-05-14T22:05:24.327Z,12.21
2023-05-14T22:07:54.731Z,12.38
2023-05-14T22:10:24.535Z,12.23
2023-05-14T22:12:54.259Z,12.56
2023-05-14T22:15:26.719Z,13.41
2023-05-14T22:17:57.298Z,12.66
2023-05-14T22:20:27.150Z,12.93
2023-05-14T22:22:56.863Z,13.12
2023-05-14T22:25:26.866Z,13.71
2023-05-14T22:27:57.031Z,13.57
2023-05-14T22:30:29.362Z,13.76
2023-05-14T22:32:59.140Z,14.24
2023-05-14T22:35:29.364Z,14.37
2023-05-14T22:37:59.259Z,14.33
2023-05-14T22:40:29.073Z,14.79
2023-05-14T22:42:58.774Z,14.28
2023-05-14T22:45:31.093Z,14.73
2023-05-14T22:48:01.226Z,14.98
2023-05-14T22:50:30.953Z,15.45
2023-05-14T22:53:00.656Z,14.99
2023-05-14T22:55:30.653Z,15.62
2023-05-14T22:58:00.400Z,14.78
2023-05-14T23:00:32.682Z,15.45
2023-05-14T23:03:02.401Z,14.66
2023-05-14T23:05:32.042Z,15.20
2023-05-14T23:08:01.966Z,15.17
2023-05-14T23:10:32.049Z,14.81
2023-05-14T23:13:01.768Z,15.92
2023-05-14T23:15:34.289Z,16.19
2023-05-14T23:18:04.527Z,16.11
2023-05-14T23:20:34.253Z,16.42
2023-05-14T23:23:04.006Z,17.36
2023-05-14T23:25:34.707Z,16.61
2023-05-14T23:28:04.485Z,16.74
2023-05-14T23:30:36.842Z,17.27
2023-05-14T23:33:07.120Z,16.64
2023-05-14T23:35:36.831Z,16.60
2023-05-14T23:38:07.198Z,17.04
2023-05-14T23:40:37.359Z,18.45
2023-05-14T23:43:07.039Z,16.70
2023-05-14T23:45:39.635Z,16.59
2023-05-14T23:48:09.357Z,18.11
2023-05-14T23:50:39.061Z,17.85
2023-05-14T23:53:08.687Z,17.67
2023-05-14T23:55:38.718Z,17.67
2023-05-14T23:58:08.517Z,17.75
